Time;durP1;ratioP1;P1;durP2;ratioP2;P2;SDS_P1;SDS_P2;PMS_P1;PMS_P2;Temp;Humidity;BMP_temperature;BMP_pressure;BME280_temperature;BME280_humidity;BME280_pressure;Samples;Min_cycle;Max_cycle;Signal;HPM_P1;HPM_P2
2024/02/23 00:00:11;;;;;;;1.60;1.50;;;;;;;;;;5097586;28;20049;-64
2024/02/23 00:02:37;;;;;;;1.50;1.40;;;;;;;;;;5097428;28;20028;-66
2024/02/23 00:05:02;;;;;;;1.88;1.60;;;;;;;;;;5079049;28;20020;-66
2024/02/23 00:07:29;;;;;;;1.77;1.45;;;;;;;;;;5097273;28;20462;-66
2024/02/23 00:09:54;;;;;;;1.50;1.17;;;;;;;;;;5097641;28;20111;-66
2024/02/23 00:12:19;;;;;;;1.60;1.50;;;;;;;;;;5079512;28;20131;-67
2024/02/23 00:14:45;;;;;;;2.95;1.42;;;;;;;;;;5078910;28;20039;-66
2024/02/23 00:17:11;;;;;;;1.73;1.35;;;;;;;;;;5097236;28;20028;-66
2024/02/23 00:19:37;;;;;;;1.38;1.27;;;;;;;;;;5097199;28;20038;-66
2024/02/23 00:22:03;;;;;;;0.98;0.95;;;;;;;;;;5096793;28;20098;-66
2024/02/23 00:24:29;;;;;;;1.40;1.30;;;;;;;;;;5097423;28;20107;-66
2024/02/23 00:26:55;;;;;;;1.63;1.27;;;;;;;;;;5078588;28;20508;-66
2024/02/23 00:29:21;;;;;;;1.63;1.52;;;;;;;;;;5096828;28;20028;-64
2024/02/23 00:31:47;;;;;;;2.45;1.35;;;;;;;;;;5078910;28;20392;-64
2024/02/23 00:34:13;;;;;;;1.60;1.20;;;;;;;;;;5096667;28;20036;-64
2024/02/23 00:36:42;;;;;;;1.60;1.50;;;;;;;;;;5096623;28;20022;-64
2024/02/23 00:39:07;;;;;;;1.70;1.60;;;;;;;;;;5096978;28;20056;-64
2024/02/23 00:41:36;;;;;;;1.40;1.30;;;;;;;;;;5096806;28;20047;-64
2024/02/23 00:44:02;;;;;;;1.17;0.98;;;;;;;;;;5078341;28;20046;-64
2024/02/23 00:46:27;;;;;;;1.48;1.38;;;;;;;;;;5096733;28;20374;-64
2024/02/23 00:48:53;;;;;;;2.05;1.75;;;;;;;;;;5096694;28;20038;-64
2024/02/23 00:51:18;;;;;;;3.15;1.75;;;;;;;;;;5077914;28;20055;-64
2024/02/23 00:53:44;;;;;;;2.40;1.73;;;;;;;;;;5096566;28;20032;-64
2024/02/23 00:56:09;;;;;;;4.45;1.65;;;;;;;;;;5096441;28;20363;-64
2024/02/23 00:58:35;;;;;;;4.32;2.10;;;;;;;;;;5096154;28;20496;-64
2024/02/23 01:01:00;;;;;;;5.13;2.08;;;;;;;;;;5096359;28;20023;-64
2024/02/23 01:03:25;;;;;;;6.80;2.15;;;;;;;;;;5077995;28;20024;-64
2024/02/23 01:05:51;;;;;;;5.90;2.30;;;;;;;;;;5077928;28;20043;-64
2024/02/23 01:08:17;;;;;;;6.40;2.58;;;;;;;;;;5096266;28;20018;-64
2024/02/23 01:10:42;;;;;;;5.18;2.17;;;;;;;;;;5096005;28;20386;-64
2024/02/23 01:13:07;;;;;;;6.13;2.40;;;;;;;;;;5096173;28;20036;-64
2024/02/23 01:15:34;;;;;;;7.78;2.60;;;;;;;;;;5095900;28;20026;-64
2024/02/23 01:17:59;;;;;;;3.33;2.17;;;;;;;;;;5077725;28;20078;-64
2024/02/23 01:20:25;;;;;;;3.97;2.15;;;;;;;;;;5096033;28;20091;-64
2024/02/23 01:22:50;;;;;;;5.97;1.92;;;;;;;;;;5095647;28;20031;-66
2024/02/23 01:25:15;;;;;;;6.55;2.05;;;;;;;;;;5077498;28;20024;-66
2024/02/23 01:27:41;;;;;;;4.03;1.77;;;;;;;;;;5095876;28;20028;-66
2024/02/23 01:30:07;;;;;;;1.67;1.58;;;;;;;;;;5096118;28;20070;-65
2024/02/23 01:32:32;;;;;;;1.60;1.25;;;;;;;;;;5095817;28;20028;-64
2024/02/23 01:34:58;;;;;;;1.50;1.00;;;;;;;;;;5095761;28;20035;-64
2024/02/23 01:37:23;;;;;;;1.67;1.45;;;;;;;;;;5095305;28;20028;-64
2024/02/23 01:39:49;;;;;;;1.58;1.42;;;;;;;;;;5095395;28;20386;-64
2024/02/23 01:42:14;;;;;;;1.40;1.23;;;;;;;;;;5095524;28;20028;-65
2024/02/23 01:44:39;;;;;;;1.40;1.30;;;;;;;;;;5095302;28;20024;-64
2024/02/23 01:47:05;;;;;;;1.35;1.25;;;;;;;;;;5095494;28;20023;-64
2024/02/23 01:49:33;;;;;;;1.35;1.25;;;;;;;;;;5095251;28;20607;-64
2024/02/23 01:51:58;;;;;;;1.40;1.30;;;;;;;;;;5077137;28;20031;-64
2024/02/23 01:54:24;;;;;;;1.60;1.50;;;;;;;;;;5095662;28;20020;-64
2024/02/23 01:56:50;;;;;;;1.50;1.30;;;;;;;;;;5094993;28;20551;-65
2024/02/23 01:59:17;;;;;;;1.60;1.38;;;;;;;;;;5095003;28;20063;-65
2024/02/23 02:01:45;;;;;;;1.48;1.30;;;;;;;;;;5077439;28;20062;-65
2024/02/23 02:04:11;;;;;;;1.30;1.20;;;;;;;;;;5076705;28;20052;-65
2024/02/23 02:06:36;;;;;;;1.60;1.50;;;;;;;;;;5094724;28;20024;-65
2024/02/23 02:09:02;;;;;;;1.35;1.25;;;;;;;;;;5094824;28;20371;-65
2024/02/23 02:11:27;;;;;;;2.05;1.67;;;;;;;;;;5094870;28;20028;-65
2024/02/23 02:13:53;;;;;;;2.05;1.50;;;;;;;;;;5093591;28;20111;-65
2024/02/23 02:16:18;;;;;;;1.42;1.33;;;;;;;;;;5094787;28;20020;-65
2024/02/23 02:18:47;;;;;;;1.70;1.60;;;;;;;;;;5095087;28;20388;-65
2024/02/23 02:21:13;;;;;;;2.17;1.77;;;;;;;;;;5095090;28;20111;-65
2024/02/23 02:23:38;;;;;;;1.17;1.13;;;;;;;;;;5075353;28;20111;-65
2024/02/23 02:26:04;;;;;;;1.38;1.27;;;;;;;;;;5093432;28;20035;-65
2024/02/23 02:28:29;;;;;;;1.83;1.23;;;;;;;;;;5093426;28;20028;-65
2024/02/23 02:30:55;;;;;;;1.45;1.35;;;;;;;;;;5093395;28;20070;-65
2024/02/23 02:33:22;;;;;;;1.17;1.10;;;;;;;;;;5093385;28;20032;-66
2024/02/23 02:35:47;;;;;;;2.17;1.42;;;;;;;;;;5093242;28;20454;-64
2024/02/23 02:38:13;;;;;;;1.50;1.40;;;;;;;;;;5093944;28;20043;-65
2024/02/23 02:40:39;;;;;;;1.63;1.40;;;;;;;;;;5094915;28;20032;-65
2024/02/23 02:43:04;;;;;;;1.58;1.38;;;;;;;;;;5094797;28;20103;-64
2024/02/23 02:45:30;;;;;;;1.30;1.20;;;;;;;;;;5094819;28;20046;-63
2024/02/23 02:47:56;;;;;;;1.50;1.38;;;;;;;;;;5094598;28;20028;-64
2024/02/23 02:50:21;;;;;;;1.55;1.45;;;;;;;;;;5076433;28;20032;-64
2024/02/23 02:52:47;;;;;;;1.55;1.45;;;;;;;;;;5094356;28;20093;-64
2024/02/23 02:55:12;;;;;;;1.42;1.33;;;;;;;;;;5094425;28;20058;-64
2024/02/23 02:57:38;;;;;;;2.28;1.40;;;;;;;;;;5094221;28;20035;-65
2024/02/23 03:00:08;;;;;;;1.33;1.23;;;;;;;;;;5075913;28;20016;-65
2024/02/23 03:02:34;;;;;;;1.45;1.35;;;;;;;;;;5094473;28;20036;-65
2024/02/23 03:05:00;;;;;;;1.73;1.58;;;;;;;;;;5094468;28;20108;-65
2024/02/23 03:07:25;;;;;;;1.60;1.45;;;;;;;;;;5094016;28;20060;-65
2024/02/23 03:09:51;;;;;;;1.60;1.50;;;;;;;;;;5094004;28;20020;-65
2024/02/23 03:12:17;;;;;;;3.22;2.00;;;;;;;;;;5076053;28;20032;-64
2024/02/23 03:14:43;;;;;;;2.95;1.98;;;;;;;;;;5075674;28;20028;-65
2024/02/23 03:17:09;;;;;;;1.90;1.80;;;;;;;;;;5093749;28;20378;-65
2024/02/23 03:19:34;;;;;;;2.40;1.90;;;;;;;;;;5094047;28;20501;-65
2024/02/23 03:22:00;;;;;;;3.08;1.90;;;;;;;;;;5093690;28;20024;-65
2024/02/23 03:24:25;;;;;;;1.70;1.60;;;;;;;;;;5094168;28;20503;-64
2024/02/23 03:26:51;;;;;;;1.80;1.70;;;;;;;;;;5095168;28;20020;-64
2024/02/23 03:29:16;;;;;;;1.95;1.80;;;;;;;;;;5098647;28;20028;-64
2024/02/23 03:31:42;;;;;;;1.98;1.88;;;;;;;;;;5079734;28;20105;-65
2024/02/23 03:34:07;;;;;;;2.00;1.90;;;;;;;;;;5098446;28;20473;-64
2024/02/23 03:36:33;;;;;;;2.08;1.88;;;;;;;;;;5079767;28;20138;-65
2024/02/23 03:38:59;;;;;;;2.30;2.10;;;;;;;;;;5097790;28;20461;-65
2024/02/23 03:41:24;;;;;;;2.08;1.85;;;;;;;;;;5098253;28;20034;-65
2024/02/23 03:43:50;;;;;;;2.30;2.10;;;;;;;;;;5097536;28;20048;-65
2024/02/23 03:46:16;;;;;;;3.40;2.20;;;;;;;;;;5098355;28;20036;-65
2024/02/23 03:48:42;;;;;;;3.92;2.42;;;;;;;;;;5097523;28;20026;-65
2024/02/23 03:51:08;;;;;;;2.78;2.58;;;;;;;;;;5097590;28;20445;-65
2024/02/23 03:53:34;;;;;;;2.65;2.42;;;;;;;;;;5097412;28;20042;-65
2024/02/23 03:55:59;;;;;;;2.60;2.40;;;;;;;;;;5097859;28;20031;-65
2024/02/23 03:58:25;;;;;;;2.63;2.40;;;;;;;;;;5097509;28;20363;-64
2024/02/23 04:00:51;;;;;;;3.85;2.75;;;;;;;;;;5098050;28;20040;-65
2024/02/23 04:03:16;;;;;;;3.53;3.17;;;;;;;;;;5097872;28;20084;-65
2024/02/23 04:05:42;;;;;;;5.07;3.30;;;;;;;;;;5097494;28;20032;-65
2024/02/23 04:08:08;;;;;;;3.90;3.50;;;;;;;;;;5097710;28;20025;-65
2024/02/23 04:10:33;;;;;;;3.28;2.95;;;;;;;;;;5079668;28;20042;-64
2024/02/23 04:12:59;;;;;;;3.00;2.80;;;;;;;;;;5078805;28;20020;-64
2024/02/23 04:15:25;;;;;;;2.92;2.72;;;;;;;;;;5097282;28;20390;-65
2024/02/23 04:17:50;;;;;;;3.17;2.45;;;;;;;;;;5078905;28;20033;-65
2024/02/23 04:20:16;;;;;;;3.00;2.72;;;;;;;;;;5097630;28;20089;-64
2024/02/23 04:22:41;;;;;;;3.30;2.42;;;;;;;;;;5096840;28;20031;-65
2024/02/23 04:25:07;;;;;;;2.80;2.53;;;;;;;;;;5097415;28;20024;-65
2024/02/23 04:27:32;;;;;;;2.97;2.47;;;;;;;;;;5097069;28;20095;-65
2024/02/23 04:29:57;;;;;;;2.58;2.38;;;;;;;;;;5097317;28;20020;-65
2024/02/23 04:32:23;;;;;;;2.35;2.15;;;;;;;;;;5097394;28;20054;-64
2024/02/23 04:34:48;;;;;;;2.20;2.10;;;;;;;;;;5097109;28;20359;-64
2024/02/23 04:37:15;;;;;;;2.53;2.33;;;;;;;;;;5096340;28;20059;-63
2024/02/23 04:39:43;;;;;;;2.50;2.30;;;;;;;;;;5096672;28;20394;-64
2024/02/23 04:42:08;;;;;;;2.50;2.40;;;;;;;;;;5096820;28;20454;-64
2024/02/23 04:44:34;;;;;;;3.00;2.80;;;;;;;;;;5096619;28;20040;-64
2024/02/23 04:47:01;;;;;;;2.45;2.35;;;;;;;;;;5061565;28;20077;-64
2024/02/23 04:49:26;;;;;;;3.58;3.10;;;;;;;;;;5096581;28;20019;-64
2024/02/23 04:52:17;;;;;;;3.53;3.05;;;;;;;;;;5078330;28;20032;-64
2024/02/23 04:54:42;;;;;;;;;;;;;;;;;;5079528;28;20482;-65
2024/02/23 04:57:07;;;;;;;5.88;3.90;;;;;;;;;;5096564;28;19939;-65
2024/02/23 04:59:33;;;;;;;5.28;4.72;;;;;;;;;;5096484;28;20088;-65
2024/02/23 05:02:04;;;;;;;9.20;6.53;;;;;;;;;;5078719;28;20036;-60
2024/02/23 05:04:29;;;;;;;11.63;7.90;;;;;;;;;;5095985;28;20031;-65
2024/02/23 05:06:54;;;;;;;13.93;9.73;;;;;;;;;;5096053;28;20378;-60
2024/02/23 05:09:21;;;;;;;10.55;7.53;;;;;;;;;;5110136;22;20056;-60
2024/02/23 05:11:47;;;;;;;9.13;7.07;;;;;;;;;;5095251;28;20027;-63
2024/02/23 05:14:14;;;;;;;8.65;5.75;;;;;;;;;;5094936;28;20028;-62
2024/02/23 05:16:39;;;;;;;5.05;4.63;;;;;;;;;;5095255;28;20070;-63
2024/02/23 05:19:05;;;;;;;4.40;4.00;;;;;;;;;;5094773;28;20071;-62
2024/02/23 05:21:31;;;;;;;4.50;4.10;;;;;;;;;;5076651;28;20027;-63
2024/02/23 05:23:56;;;;;;;5.25;4.07;;;;;;;;;;5093950;28;20031;-62
2024/02/23 05:26:22;;;;;;;4.63;3.85;;;;;;;;;;5093832;28;20036;-62
2024/02/23 05:28:47;;;;;;;3.53;3.22;;;;;;;;;;5095799;28;20016;-63
2024/02/23 05:31:13;;;;;;;3.30;3.00;;;;;;;;;;5087957;28;20046;-62
2024/02/23 05:33:38;;;;;;;4.57;4.15;;;;;;;;;;5085809;28;20020;-62
2024/02/23 05:36:04;;;;;;;6.35;4.97;;;;;;;;;;5083787;28;20012;-62
2024/02/23 05:38:31;;;;;;;3.17;2.85;;;;;;;;;;5085220;28;20028;-63
2024/02/23 05:40:56;;;;;;;3.00;2.63;;;;;;;;;;5085690;28;20482;-62
2024/02/23 05:43:22;;;;;;;2.95;2.75;;;;;;;;;;5083600;28;20035;-62
2024/02/23 05:45:47;;;;;;;4.82;3.10;;;;;;;;;;5067341;28;20021;-62
2024/02/23 05:48:13;;;;;;;4.05;3.65;;;;;;;;;;5084922;28;20044;-62
2024/02/23 05:50:38;;;;;;;7.60;6.55;;;;;;;;;;5082989;28;20020;-62
2024/02/23 05:53:04;;;;;;;15.82;11.10;;;;;;;;;;5085539;28;20020;-62
2024/02/23 05:55:30;;;;;;;17.55;12.02;;;;;;;;;;5084092;28;20043;-63
2024/02/23 05:57:56;;;;;;;22.05;12.95;;;;;;;;;;5084190;28;20028;-64
2024/02/23 06:00:21;;;;;;;22.15;12.48;;;;;;;;;;5075812;28;20397;-63
2024/02/23 06:02:48;;;;;;;15.43;10.32;;;;;;;;;;5074125;28;20029;-62
2024/02/23 06:05:13;;;;;;;10.25;6.85;;;;;;;;;;5084388;28;20023;-62
2024/02/23 06:07:40;;;;;;;6.75;5.15;;;;;;;;;;5085186;28;20016;-62
2024/02/23 06:10:05;;;;;;;4.93;4.13;;;;;;;;;;5093652;28;20047;-62
2024/02/23 06:12:31;;;;;;;5.18;4.18;;;;;;;;;;5094517;28;20024;-62
2024/02/23 06:14:58;;;;;;;5.35;4.72;;;;;;;;;;5094383;28;20031;-62
2024/02/23 06:17:23;;;;;;;4.57;4.18;;;;;;;;;;5094271;28;20024;-62
2024/02/23 06:19:49;;;;;;;4.93;4.40;;;;;;;;;;5094505;28;20024;-62
2024/02/23 06:22:16;;;;;;;4.63;3.95;;;;;;;;;;5076906;28;20028;-62
2024/02/23 06:24:42;;;;;;;4.30;3.90;;;;;;;;;;5076833;28;20064;-62
2024/02/23 06:27:08;;;;;;;4.60;4.10;;;;;;;;;;5094821;28;20052;-62
2024/02/23 06:29:33;;;;;;;4.78;3.90;;;;;;;;;;5095118;28;20027;-62
2024/02/23 06:32:01;;;;;;;4.38;3.30;;;;;;;;;;5094733;28;20480;-62
2024/02/23 06:34:26;;;;;;;3.28;3.08;;;;;;;;;;5094897;28;20458;-62
2024/02/23 06:36:52;;;;;;;4.35;3.53;;;;;;;;;;5094348;28;20024;-62
2024/02/23 06:39:18;;;;;;;3.45;3.15;;;;;;;;;;5076445;28;20547;-62
2024/02/23 06:41:43;;;;;;;8.00;4.90;;;;;;;;;;5076076;28;20495;-62
2024/02/23 06:44:09;;;;;;;16.48;9.38;;;;;;;;;;5093692;28;20032;-62
2024/02/23 06:46:34;;;;;;;15.10;9.02;;;;;;;;;;5094451;28;20020;-62
2024/02/23 06:48:59;;;;;;;12.23;7.10;;;;;;;;;;5093668;28;20205;-62
2024/02/23 06:51:25;;;;;;;6.47;5.43;;;;;;;;;;5093071;28;20474;-62
2024/02/23 06:53:50;;;;;;;5.45;4.45;;;;;;;;;;5074037;28;20398;-62
2024/02/23 06:56:16;;;;;;;6.60;5.18;;;;;;;;;;5092271;28;20123;-62
2024/02/23 06:58:41;;;;;;;6.93;5.30;;;;;;;;;;5092296;28;20028;-62
2024/02/23 07:01:11;;;;;;;5.93;5.28;;;;;;;;;;5091955;28;20023;-62
2024/02/23 07:03:36;;;;;;;5.80;5.20;;;;;;;;;;5092463;28;20020;-62
2024/02/23 07:06:03;;;;;;;5.20;4.80;;;;;;;;;;5092674;28;20270;-62
2024/02/23 07:08:28;;;;;;;6.05;5.45;;;;;;;;;;5094211;28;20044;-62
2024/02/23 07:10:53;;;;;;;7.90;6.85;;;;;;;;;;5075894;28;20073;-62
2024/02/23 07:13:19;;;;;;;8.55;7.45;;;;;;;;;;5094200;28;20032;-62
2024/02/23 07:15:45;;;;;;;9.35;7.10;;;;;;;;;;5094018;28;20036;-62
2024/02/23 07:18:10;;;;;;;10.20;8.57;;;;;;;;;;5093992;28;20027;-62
2024/02/23 07:20:36;;;;;;;14.52;9.70;;;;;;;;;;5076334;28;20044;-62
2024/02/23 07:23:01;;;;;;;17.52;10.55;;;;;;;;;;5093909;28;20036;-62
2024/02/23 07:25:27;;;;;;;11.55;7.68;;;;;;;;;;5093949;28;20438;-62
2024/02/23 07:27:52;;;;;;;7.35;5.63;;;;;;;;;;5093898;28;20016;-62
2024/02/23 07:30:18;;;;;;;8.77;6.65;;;;;;;;;;5094107;28;20371;-62
2024/02/23 07:32:44;;;;;;;8.55;6.90;;;;;;;;;;5094130;28;20115;-62
2024/02/23 07:35:09;;;;;;;7.93;6.38;;;;;;;;;;5093882;28;20389;-62
2024/02/23 07:37:35;;;;;;;6.45;5.63;;;;;;;;;;5094119;28;20031;-62
2024/02/23 07:40:01;;;;;;;5.53;5.05;;;;;;;;;;5094405;28;20424;-62
2024/02/23 07:42:28;;;;;;;5.78;5.00;;;;;;;;;;5093706;28;20024;-62
2024/02/23 07:44:53;;;;;;;6.70;5.78;;;;;;;;;;5093802;28;20036;-62
2024/02/23 07:47:18;;;;;;;6.70;5.75;;;;;;;;;;5094299;28;20157;-62
2024/02/23 07:49:44;;;;;;;6.75;5.35;;;;;;;;;;5094055;28;20016;-62
2024/02/23 07:52:09;;;;;;;6.97;5.68;;;;;;;;;;5093693;28;20420;-62
2024/02/23 07:54:35;;;;;;;7.18;6.25;;;;;;;;;;5094221;28;20022;-62
2024/02/23 07:57:00;;;;;;;6.75;6.15;;;;;;;;;;5093449;28;20416;-62
2024/02/23 07:59:26;;;;;;;4.55;4.15;;;;;;;;;;5075697;28;20044;-62
2024/02/23 08:01:51;;;;;;;5.05;4.28;;;;;;;;;;5075595;28;20044;-62
2024/02/23 08:04:16;;;;;;;7.07;5.82;;;;;;;;;;5093325;28;20118;-62
2024/02/23 08:06:45;;;;;;;4.10;3.63;;;;;;;;;;5093615;28;20016;-62
2024/02/23 08:09:10;;;;;;;5.20;4.13;;;;;;;;;;5093605;28;20047;-62
2024/02/23 08:11:36;;;;;;;4.47;4.07;;;;;;;;;;5093603;28;20032;-62
2024/02/23 08:14:02;;;;;;;7.45;5.72;;;;;;;;;;5096821;28;20039;-62
2024/02/23 08:16:28;;;;;;;4.70;4.28;;;;;;;;;;5097443;28;20032;-62
2024/02/23 08:18:53;;;;;;;4.30;3.88;;;;;;;;;;5097305;28;20023;-62
2024/02/23 08:21:19;;;;;;;3.83;3.20;;;;;;;;;;5097331;28;20032;-62
2024/02/23 08:23:45;;;;;;;3.22;2.95;;;;;;;;;;5096937;28;20024;-62
2024/02/23 09:34:53;;;;;;;2.65;2.13;;;;;;;;;;5091160;27;20923;-70
2024/02/23 09:37:18;;;;;;;2.88;2.47;;;;;;;;;;5091042;28;20021;-71
2024/02/23 09:39:44;;;;;;;2.53;2.33;;;;;;;;;;5091193;28;20133;-71
2024/02/23 09:42:10;;;;;;;4.25;3.10;;;;;;;;;;5090766;28;20024;-71
2024/02/23 09:44:36;;;;;;;2.60;2.40;;;;;;;;;;5090834;28;20111;-64
2024/02/23 09:47:09;;;;;;;3.33;2.47;;;;;;;;;;5082731;22;20140;-70
2024/02/23 09:49:40;;;;;;;2.10;2.00;;;;;;;;;;5049152;28;20032;-71
2024/02/23 09:52:11;;;;;;;2.10;1.88;;;;;;;;;;5050805;28;20064;-64
2024/02/23 09:54:37;;;;;;;2.95;1.88;;;;;;;;;;5050752;28;20464;-65
2024/02/23 09:57:04;;;;;;;1.45;1.35;;;;;;;;;;5050363;28;20048;-65
2024/02/23 09:59:31;;;;;;;1.90;1.65;;;;;;;;;;5082610;28;20062;-64
2024/02/23 10:01:57;;;;;;;1.58;1.48;;;;;;;;;;5083345;28;20036;-64
2024/02/23 10:04:24;;;;;;;2.20;2.03;;;;;;;;;;5050496;28;20487;-65
2024/02/23 10:06:49;;;;;;;2.17;2.05;;;;;;;;;;5050525;28;20025;-64
2024/02/23 10:09:15;;;;;;;2.05;1.85;;;;;;;;;;5050777;28;20117;-65
2024/02/23 10:11:40;;;;;;;2.83;2.13;;;;;;;;;;5050462;28;20030;-64
2024/02/23 10:14:06;;;;;;;2.75;1.73;;;;;;;;;;5050156;28;20476;-64
2024/02/23 10:16:31;;;;;;;1.80;1.70;;;;;;;;;;5050604;28;20029;-64
2024/02/23 10:18:57;;;;;;;2.00;1.77;;;;;;;;;;5050025;28;20109;-64
2024/02/23 10:21:23;;;;;;;1.98;1.77;;;;;;;;;;5048794;28;20036;-71
2024/02/23 10:23:50;;;;;;;2.60;2.05;;;;;;;;;;5049887;28;20033;-71
2024/02/23 10:26:20;;;;;;;2.58;2.10;;;;;;;;;;5049898;28;20037;-71
2024/02/23 10:28:48;;;;;;;2.00;1.90;;;;;;;;;;5050165;28;20040;-72
2024/02/23 10:31:14;;;;;;;2.40;2.20;;;;;;;;;;5050049;28;20465;-72
2024/02/23 10:33:39;;;;;;;1.58;1.48;;;;;;;;;;5048615;28;20029;-72
2024/02/23 10:36:06;;;;;;;2.03;1.48;;;;;;;;;;5036334;28;20021;-71
2024/02/23 10:38:32;;;;;;;1.85;1.75;;;;;;;;;;5036642;28;20029;-71
2024/02/23 10:40:58;;;;;;;1.50;1.40;;;;;;;;;;5036331;28;20103;-71
2024/02/23 10:43:30;;;;;;;2.75;1.52;;;;;;;;;;5036798;28;20043;-71
2024/02/23 10:45:57;;;;;;;2.13;1.92;;;;;;;;;;5036550;28;20026;-71
2024/02/23 10:48:23;;;;;;;1.98;1.83;;;;;;;;;;5018271;28;20554;-71
2024/02/23 10:50:50;;;;;;;1.88;1.77;;;;;;;;;;5034866;28;20021;-64
2024/02/23 10:53:16;;;;;;;2.17;1.95;;;;;;;;;;5036092;28;20197;-63
2024/02/23 10:55:43;;;;;;;2.00;1.67;;;;;;;;;;5036352;28;20417;-64
2024/02/23 10:58:11;;;;;;;2.20;1.80;;;;;;;;;;5068039;28;20059;-64
2024/02/23 11:00:37;;;;;;;2.28;2.08;;;;;;;;;;5036251;28;20041;-65
2024/02/23 11:03:03;;;;;;;2.45;2.25;;;;;;;;;;5036440;28;20168;-64
2024/02/23 11:05:29;;;;;;;2.13;1.60;;;;;;;;;;5036156;28;20096;-64
2024/02/23 11:07:58;;;;;;;1.70;1.60;;;;;;;;;;5035808;28;20025;-63
2024/02/23 11:10:27;;;;;;;1.60;1.50;;;;;;;;;;5036078;28;20024;-64
2024/02/23 11:13:00;;;;;;;1.77;1.67;;;;;;;;;;5034514;28;20095;-64
2024/02/23 11:15:26;;;;;;;3.00;2.00;;;;;;;;;;5034472;28;20038;-63
2024/02/23 11:18:12;;;;;;;2.47;2.25;;;;;;;;;;5075937;22;20108;-69
2024/02/23 11:20:39;;;;;;;1.60;1.50;;;;;;;;;;5016195;28;20115;-71
2024/02/23 11:23:13;;;;;;;2.13;1.70;;;;;;;;;;5035778;28;20029;-71
2024/02/23 11:25:38;;;;;;;2.55;2.35;;;;;;;;;;5035575;28;20049;-71
2024/02/23 11:28:03;;;;;;;3.58;2.33;;;;;;;;;;5035739;28;20025;-71
2024/02/23 11:30:31;;;;;;;1.92;1.67;;;;;;;;;;5035461;28;20021;-72
2024/02/23 11:32:59;;;;;;;2.15;2.03;;;;;;;;;;5035409;28;20488;-71
2024/02/23 11:35:25;;;;;;;1.77;1.67;;;;;;;;;;5035598;28;20104;-71
2024/02/23 11:37:59;;;;;;;2.92;2.17;;;;;;;;;;5035288;28;20033;-71
2024/02/23 11:40:25;;;;;;;2.15;1.98;;;;;;;;;;5035499;28;20445;-71
2024/02/23 11:42:52;;;;;;;2.30;2.10;;;;;;;;;;5033924;28;20109;-71
2024/02/23 11:45:17;;;;;;;2.10;1.90;;;;;;;;;;5035175;28;20049;-71
2024/02/23 11:47:42;;;;;;;2.95;2.47;;;;;;;;;;5034365;28;20029;-71
2024/02/23 11:50:09;;;;;;;2.92;2.60;;;;;;;;;;5033752;28;20033;-71
2024/02/23 11:52:36;;;;;;;3.13;2.20;;;;;;;;;;5035003;28;20025;-71
2024/02/23 11:55:02;;;;;;;2.72;2.53;;;;;;;;;;5055219;22;20184;-65
2024/02/23 11:57:30;;;;;;;3.40;3.10;;;;;;;;;;5075088;28;20033;-64
2024/02/23 11:59:55;;;;;;;3.22;2.83;;;;;;;;;;5074756;28;20078;-65
2024/02/23 12:02:21;;;;;;;3.28;2.97;;;;;;;;;;5056726;28;20028;-64
2024/02/23 12:04:46;;;;;;;3.83;3.45;;;;;;;;;;5074609;28;20082;-71
2024/02/23 12:07:11;;;;;;;6.63;3.83;;;;;;;;;;5073726;28;20021;-66
2024/02/23 12:09:40;;;;;;;14.27;6.82;;;;;;;;;;5074589;28;20064;-64
2024/02/23 12:12:06;;;;;;;4.38;3.22;;;;;;;;;;5075040;28;20424;-64
2024/02/23 12:14:31;;;;;;;3.15;2.85;;;;;;;;;;5074728;28;20047;-65
2024/02/23 12:16:57;;;;;;;2.92;2.30;;;;;;;;;;5073265;28;20036;-64
2024/02/23 12:19:23;;;;;;;5.20;3.30;;;;;;;;;;5074373;28;20029;-63
2024/02/23 12:21:48;;;;;;;2.20;1.88;;;;;;;;;;5073174;28;20066;-64
2024/02/23 12:24:13;;;;;;;3.17;2.78;;;;;;;;;;5072936;28;20085;-65
2024/02/23 12:26:39;;;;;;;3.10;2.90;;;;;;;;;;5074245;28;20375;-65
2024/02/23 12:29:05;;;;;;;6.35;3.97;;;;;;;;;;5073519;28;20098;-65
2024/02/23 12:31:32;;;;;;;4.53;3.42;;;;;;;;;;5074152;28;20099;-64
2024/02/23 12:33:57;;;;;;;3.25;2.95;;;;;;;;;;5073228;28;20384;-64
2024/02/23 12:36:23;;;;;;;4.05;3.15;;;;;;;;;;5072862;28;20036;-66
2024/02/23 12:38:48;;;;;;;4.07;3.65;;;;;;;;;;5074060;28;20032;-64
2024/02/23 12:41:14;;;;;;;4.50;3.80;;;;;;;;;;5073359;28;20121;-64
2024/02/23 12:43:39;;;;;;;4.75;4.07;;;;;;;;;;5072647;28;20598;-64
2024/02/23 12:46:06;;;;;;;6.22;5.03;;;;;;;;;;5072992;28;20471;-63
2024/02/23 12:48:32;;;;;;;5.90;5.30;;;;;;;;;;5072732;28;20115;-65
2024/02/23 12:50:57;;;;;;;6.00;3.75;;;;;;;;;;5072794;28;20051;-65
2024/02/23 12:53:38;;;;;;;4.60;3.63;;;;;;;;;;5074095;28;20039;-64
2024/02/23 12:56:04;;;;;;;4.63;3.70;;;;;;;;;;5072396;28;20044;-64
2024/02/23 12:58:30;;;;;;;3.38;2.63;;;;;;;;;;5073858;28;20025;-64
2024/02/23 13:00:56;;;;;;;3.58;3.28;;;;;;;;;;5072483;28;20033;-64
2024/02/23 13:03:22;;;;;;;4.82;4.43;;;;;;;;;;5073950;28;20412;-64
2024/02/23 13:05:48;;;;;;;4.22;3.85;;;;;;;;;;5073718;28;20037;-65
2024/02/23 13:08:13;;;;;;;4.20;3.80;;;;;;;;;;5072774;28;20032;-64
2024/02/23 13:10:40;;;;;;;7.35;4.95;;;;;;;;;;5073946;28;20013;-64
2024/02/23 13:13:05;;;;;;;4.13;3.47;;;;;;;;;;5073876;28;20107;-64
2024/02/23 13:15:30;;;;;;;5.28;3.88;;;;;;;;;;5073897;28;20063;-65
2024/02/23 13:17:57;;;;;;;6.28;4.50;;;;;;;;;;5073837;28;20032;-65
2024/02/23 13:20:24;;;;;;;5.70;3.53;;;;;;;;;;5073880;28;20025;-64
2024/02/23 13:22:50;;;;;;;3.00;2.75;;;;;;;;;;5073461;28;20456;-63
2024/02/23 13:27:58;;;;;;;5.85;4.90;;;;;;;;;;5100017;22;20093;-71
2024/02/23 13:30:24;;;;;;;7.65;5.72;;;;;;;;;;5094177;28;20032;-71
2024/02/23 13:32:49;;;;;;;7.40;5.55;;;;;;;;;;5093919;28;20103;-71
2024/02/23 13:35:14;;;;;;;7.95;5.55;;;;;;;;;;5094152;28;20150;-71
2024/02/23 13:37:41;;;;;;;6.63;5.00;;;;;;;;;;5092429;28;20455;-71
2024/02/23 13:40:08;;;;;;;8.32;6.40;;;;;;;;;;5093832;28;20097;-71
2024/02/23 13:42:34;;;;;;;6.78;5.35;;;;;;;;;;5093458;28;20020;-71
2024/02/23 13:44:59;;;;;;;8.70;6.22;;;;;;;;;;5092238;28;20081;-71
2024/02/23 13:47:25;;;;;;;15.13;8.77;;;;;;;;;;5093465;28;20023;-71
2024/02/23 13:49:50;;;;;;;20.02;12.00;;;;;;;;;;5075402;28;20028;-71
2024/02/23 13:52:16;;;;;;;11.95;8.10;;;;;;;;;;5093992;28;20095;-71
2024/02/23 13:54:42;;;;;;;21.40;12.02;;;;;;;;;;5092827;28;20104;-72
2024/02/23 13:57:10;;;;;;;13.80;8.60;;;;;;;;;;5093397;28;20032;-71
2024/02/23 13:59:36;;;;;;;32.72;16.00;;;;;;;;;;5093641;28;20024;-71
2024/02/23 14:02:02;;;;;;;23.15;11.88;;;;;;;;;;5093649;28;20023;-71
2024/02/23 14:04:28;;;;;;;12.07;7.60;;;;;;;;;;5093257;28;20089;-71
2024/02/23 14:06:53;;;;;;;6.25;5.53;;;;;;;;;;5093844;28;20024;-71
2024/02/23 14:09:18;;;;;;;7.13;5.70;;;;;;;;;;5093887;28;20451;-71
2024/02/23 14:11:45;;;;;;;5.32;4.40;;;;;;;;;;5096232;28;20028;-72
2024/02/23 14:14:10;;;;;;;5.30;4.35;;;;;;;;;;5095910;28;20055;-65
2024/02/23 14:16:36;;;;;;;17.13;8.70;;;;;;;;;;5096890;28;20471;-67
2024/02/23 14:19:01;;;;;;;14.88;7.32;;;;;;;;;;5096952;28;20016;-71
2024/02/23 14:21:27;;;;;;;6.78;4.53;;;;;;;;;;5096928;28;20036;-71
2024/02/23 14:23:53;;;;;;;4.30;4.00;;;;;;;;;;5095509;28;20027;-72
2024/02/23 14:26:18;;;;;;;5.93;4.40;;;;;;;;;;5095512;28;20110;-71
2024/02/23 14:28:44;;;;;;;5.20;4.07;;;;;;;;;;5096591;28;20119;-71
2024/02/23 14:31:09;;;;;;;5.55;4.47;;;;;;;;;;5097283;28;20042;-63
2024/02/23 14:36:13;;;;;;;7.35;4.85;;;;;;;;;;5082079;22;20114;-64
2024/02/23 14:38:38;;;;;;;9.10;5.72;;;;;;;;;;5076455;28;20032;-70
2024/02/23 14:41:04;;;;;;;13.20;6.93;;;;;;;;;;5076546;28;20066;-71
2024/02/23 14:43:30;;;;;;;35.13;14.25;;;;;;;;;;5076197;28;20033;-72
2024/02/23 14:45:57;;;;;;;48.47;20.65;;;;;;;;;;5074942;28;20120;-72
2024/02/23 14:48:22;;;;;;;19.55;11.05;;;;;;;;;;5076142;28;20028;-63
2024/02/23 14:50:48;;;;;;;16.63;10.45;;;;;;;;;;5076366;28;20130;-63
2024/02/23 14:53:15;;;;;;;19.42;13.30;;;;;;;;;;5076288;28;20403;-64
2024/02/23 14:55:40;;;;;;;16.27;12.68;;;;;;;;;;5075149;28;20036;-65
2024/02/23 14:58:05;;;;;;;12.15;9.95;;;;;;;;;;5075874;28;20030;-68
2024/02/23 15:00:32;;;;;;;11.02;8.88;;;;;;;;;;5074636;28;20425;-66
2024/02/23 15:02:59;;;;;;;10.90;8.15;;;;;;;;;;5074756;28;20429;-67
2024/02/23 15:05:25;;;;;;;13.80;10.07;;;;;;;;;;5076559;28;20476;-65
2024/02/23 15:07:52;;;;;;;14.15;10.93;;;;;;;;;;5076108;28;20051;-64
2024/02/23 15:10:18;;;;;;;12.02;8.10;;;;;;;;;;5074818;28;20024;-65
2024/02/23 15:12:43;;;;;;;11.48;8.82;;;;;;;;;;5074457;28;20037;-72
2024/02/23 15:15:09;;;;;;;16.38;11.95;;;;;;;;;;5074611;28;20112;-72
2024/02/23 15:17:35;;;;;;;23.10;16.67;;;;;;;;;;5075020;28;20032;-72
2024/02/23 15:20:00;;;;;;;9.88;7.78;;;;;;;;;;5074890;28;20375;-65
2024/02/23 15:22:26;;;;;;;11.75;7.63;;;;;;;;;;5073673;28;20032;-65
2024/02/23 15:24:51;;;;;;;8.70;6.25;;;;;;;;;;5074803;28;20023;-64
2024/02/23 15:27:18;;;;;;;12.45;7.78;;;;;;;;;;5075420;28;20464;-63
2024/02/23 15:29:43;;;;;;;17.27;10.90;;;;;;;;;;5075668;28;20033;-64
2024/02/23 15:32:10;;;;;;;23.60;12.80;;;;;;;;;;5075536;28;20031;-64
2024/02/23 15:34:36;;;;;;;24.10;14.57;;;;;;;;;;5075195;28;20049;-65
2024/02/23 15:37:02;;;;;;;73.53;35.08;;;;;;;;;;5075583;28;20024;-65
2024/02/23 15:39:28;;;;;;;82.90;41.35;;;;;;;;;;5074844;28;20485;-64
2024/02/23 15:41:53;;;;;;;28.83;17.55;;;;;;;;;;5074014;28;20031;-64
2024/02/23 15:44:19;;;;;;;18.05;12.70;;;;;;;;;;5075136;28;20391;-71
2024/02/23 15:46:45;;;;;;;18.17;12.70;;;;;;;;;;5073664;28;20105;-71